sensor_id;sensor_type;location;lat;lon;timestamp;P1;durP1;ratioP1;P2;durP2;ratioP2
12480;SDS011;6305;48.398;11.762;2024-02-21T00:01:31;8.65;;;3.42;;
12480;SDS011;6305;48.398;11.762;2024-02-21T00:03:58;7.90;;;3.70;;
12480;SDS011;6305;48.398;11.762;2024-02-21T00:06:25;10.05;;;3.88;;
12480;SDS011;6305;48.398;11.762;2024-02-21T00:08:53;9.38;;;3.63;;
12480;SDS011;6305;48.398;11.762;2024-02-21T00:11:20;11.02;;;3.97;;
12480;SDS011;6305;48.398;11.762;2024-02-21T00:13:47;8.95;;;3.72;;
12480;SDS011;6305;48.398;11.762;2024-02-21T00:16:14;6.55;;;3.60;;
12480;SDS011;6305;48.398;11.762;2024-02-21T00:18:41;9.45;;;3.80;;
12480;SDS011;6305;48.398;11.762;2024-02-21T00:21:08;9.25;;;3.20;;
12480;SDS011;6305;48.398;11.762;2024-02-21T00:23:40;7.97;;;3.38;;
12480;SDS011;6305;48.398;11.762;2024-02-21T00:26:08;7.35;;;3.05;;
12480;SDS011;6305;48.398;11.762;2024-02-21T00:28:35;8.95;;;3.03;;
12480;SDS011;6305;48.398;11.762;2024-02-21T00:31:02;6.85;;;2.97;;
12480;SDS011;6305;48.398;11.762;2024-02-21T00:33:30;8.93;;;3.72;;
12480;SDS011;6305;48.398;11.762;2024-02-21T00:35:57;7.70;;;3.15;;
12480;SDS011;6305;48.398;11.762;2024-02-21T00:38:24;7.68;;;3.33;;
12480;SDS011;6305;48.398;11.762;2024-02-21T00:40:51;8.25;;;3.55;;
12480;SDS011;6305;48.398;11.762;2024-02-21T00:43:19;8.50;;;3.63;;
12480;SDS011;6305;48.398;11.762;2024-02-21T00:45:48;6.53;;;2.83;;
12480;SDS011;6305;48.398;11.762;2024-02-21T00:48:15;7.85;;;3.20;;
12480;SDS011;6305;48.398;11.762;2024-02-21T00:50:42;6.32;;;3.35;;
12480;SDS011;6305;48.398;11.762;2024-02-21T00:53:15;6.88;;;3.13;;
12480;SDS011;6305;48.398;11.762;2024-02-21T00:55:43;7.15;;;2.92;;
12480;SDS011;6305;48.398;11.762;2024-02-21T00:58:10;6.35;;;3.03;;
12480;SDS011;6305;48.398;11.762;2024-02-21T01:00:38;8.25;;;3.25;;
12480;SDS011;6305;48.398;11.762;2024-02-21T01:03:05;7.90;;;3.00;;
12480;SDS011;6305;48.398;11.762;2024-02-21T01:05:31;6.53;;;3.15;;
12480;SDS011;6305;48.398;11.762;2024-02-21T01:07:58;8.00;;;3.55;;
12480;SDS011;6305;48.398;11.762;2024-02-21T01:10:25;7.43;;;3.35;;
12480;SDS011;6305;48.398;11.762;2024-02-21T01:12:52;5.88;;;3.30;;
12480;SDS011;6305;48.398;11.762;2024-02-21T01:15:19;7.95;;;3.00;;
12480;SDS011;6305;48.398;11.762;2024-02-21T01:17:47;9.95;;;3.08;;
12480;SDS011;6305;48.398;11.762;2024-02-21T01:20:15;8.02;;;3.60;;
12480;SDS011;6305;48.398;11.762;2024-02-21T01:22:42;6.00;;;3.08;;
12480;SDS011;6305;48.398;11.762;2024-02-21T01:25:09;6.40;;;2.90;;
12480;SDS011;6305;48.398;11.762;2024-02-21T01:27:36;5.55;;;3.22;;
12480;SDS011;6305;48.398;11.762;2024-02-21T01:30:03;6.22;;;3.00;;
12480;SDS011;6305;48.398;11.762;2024-02-21T01:32:32;10.05;;;3.45;;
12480;SDS011;6305;48.398;11.762;2024-02-21T01:35:00;8.75;;;2.80;;
12480;SDS011;6305;48.398;11.762;2024-02-21T01:37:27;6.82;;;2.63;;
12480;SDS011;6305;48.398;11.762;2024-02-21T01:39:54;8.57;;;3.10;;
12480;SDS011;6305;48.398;11.762;2024-02-21T01:42:21;5.60;;;3.03;;
12480;SDS011;6305;48.398;11.762;2024-02-21T01:44:48;7.43;;;2.90;;
12480;SDS011;6305;48.398;11.762;2024-02-21T01:47:14;6.80;;;2.63;;
12480;SDS011;6305;48.398;11.762;2024-02-21T01:49:41;8.65;;;2.85;;
12480;SDS011;6305;48.398;11.762;2024-02-21T01:52:10;6.47;;;2.83;;
12480;SDS011;6305;48.398;11.762;2024-02-21T01:54:39;7.07;;;2.95;;
12480;SDS011;6305;48.398;11.762;2024-02-21T01:57:07;4.75;;;2.53;;
12480;SDS011;6305;48.398;11.762;2024-02-21T01:59:34;5.45;;;2.70;;
12480;SDS011;6305;48.398;11.762;2024-02-21T02:02:01;7.90;;;2.83;;
12480;SDS011;6305;48.398;11.762;2024-02-21T02:04:28;6.43;;;2.55;;
12480;SDS011;6305;48.398;11.762;2024-02-21T02:06:55;4.72;;;2.92;;
12480;SDS011;6305;48.398;11.762;2024-02-21T02:09:27;5.22;;;2.78;;
12480;SDS011;6305;48.398;11.762;2024-02-21T02:11:54;5.70;;;2.80;;
12480;SDS011;6305;48.398;11.762;2024-02-21T02:14:23;6.38;;;2.50;;
12480;SDS011;6305;48.398;11.762;2024-02-21T02:16:50;5.90;;;2.63;;
12480;SDS011;6305;48.398;11.762;2024-02-21T02:19:17;5.47;;;2.47;;
12480;SDS011;6305;48.398;11.762;2024-02-21T02:21:46;8.98;;;2.90;;
12480;SDS011;6305;48.398;11.762;2024-02-21T02:24:20;8.32;;;2.58;;
12480;SDS011;6305;48.398;11.762;2024-02-21T02:26:46;5.97;;;2.40;;
12480;SDS011;6305;48.398;11.762;2024-02-21T02:29:13;5.55;;;2.47;;
12480;SDS011;6305;48.398;11.762;2024-02-21T02:31:40;7.22;;;2.47;;
12480;SDS011;6305;48.398;11.762;2024-02-21T02:34:06;8.45;;;2.72;;
12480;SDS011;6305;48.398;11.762;2024-02-21T02:36:35;7.75;;;2.75;;
12480;SDS011;6305;48.398;11.762;2024-02-21T02:39:02;6.22;;;3.10;;
12480;SDS011;6305;48.398;11.762;2024-02-21T02:41:30;6.25;;;2.40;;
12480;SDS011;6305;48.398;11.762;2024-02-21T02:43:57;4.47;;;2.40;;
12480;SDS011;6305;48.398;11.762;2024-02-21T02:46:24;5.25;;;2.75;;
12480;SDS011;6305;48.398;11.762;2024-02-21T02:48:51;5.47;;;2.88;;
12480;SDS011;6305;48.398;11.762;2024-02-21T02:51:18;5.78;;;2.40;;
12480;SDS011;6305;48.398;11.762;2024-02-21T02:53:44;5.82;;;2.42;;
12480;SDS011;6305;48.398;11.762;2024-02-21T02:56:14;8.57;;;2.58;;
12480;SDS011;6305;48.398;11.762;2024-02-21T02:58:43;6.22;;;2.72;;
12480;SDS011;6305;48.398;11.762;2024-02-21T03:01:10;6.60;;;2.78;;
12480;SDS011;6305;48.398;11.762;2024-02-21T03:03:36;7.70;;;2.88;;
12480;SDS011;6305;48.398;11.762;2024-02-21T03:06:03;4.78;;;2.65;;
12480;SDS011;6305;48.398;11.762;2024-02-21T03:08:30;5.03;;;2.42;;
12480;SDS011;6305;48.398;11.762;2024-02-21T03:10:58;5.22;;;2.67;;
12480;SDS011;6305;48.398;11.762;2024-02-21T03:13:25;7.80;;;2.70;;
12480;SDS011;6305;48.398;11.762;2024-02-21T03:15:53;5.40;;;2.60;;
12480;SDS011;6305;48.398;11.762;2024-02-21T03:18:20;4.28;;;2.45;;
12480;SDS011;6305;48.398;11.762;2024-02-21T03:20:47;5.75;;;2.55;;
12480;SDS011;6305;48.398;11.762;2024-02-21T03:23:14;5.70;;;2.30;;
12480;SDS011;6305;48.398;11.762;2024-02-21T03:25:41;5.43;;;2.60;;
12480;SDS011;6305;48.398;11.762;2024-02-21T03:28:08;7.50;;;2.65;;
12480;SDS011;6305;48.398;11.762;2024-02-21T03:30:35;4.13;;;2.20;;
12480;SDS011;6305;48.398;11.762;2024-02-21T03:33:03;7.22;;;2.88;;
12480;SDS011;6305;48.398;11.762;2024-02-21T03:35:30;6.20;;;2.22;;
12480;SDS011;6305;48.398;11.762;2024-02-21T03:37:57;7.65;;;2.35;;
12480;SDS011;6305;48.398;11.762;2024-02-21T03:40:24;5.78;;;2.70;;
12480;SDS011;6305;48.398;11.762;2024-02-21T03:42:51;9.20;;;2.70;;
12480;SDS011;6305;48.398;11.762;2024-02-21T03:45:18;6.57;;;2.38;;
12480;SDS011;6305;48.398;11.762;2024-02-21T03:47:45;4.03;;;2.10;;
12480;SDS011;6305;48.398;11.762;2024-02-21T03:50:13;5.20;;;2.30;;
12480;SDS011;6305;48.398;11.762;2024-02-21T03:52:40;3.70;;;2.20;;
12480;SDS011;6305;48.398;11.762;2024-02-21T03:55:07;7.28;;;2.38;;
12480;SDS011;6305;48.398;11.762;2024-02-21T03:57:34;8.73;;;2.58;;
12480;SDS011;6305;48.398;11.762;2024-02-21T04:00:01;8.07;;;2.40;;
12480;SDS011;6305;48.398;11.762;2024-02-21T04:02:32;5.13;;;2.33;;
12480;SDS011;6305;48.398;11.762;2024-02-21T04:04:59;6.72;;;2.80;;
12480;SDS011;6305;48.398;11.762;2024-02-21T04:07:28;5.53;;;2.35;;
12480;SDS011;6305;48.398;11.762;2024-02-21T04:09:54;6.40;;;2.22;;
12480;SDS011;6305;48.398;11.762;2024-02-21T04:12:21;5.82;;;2.35;;
12480;SDS011;6305;48.398;11.762;2024-02-21T04:14:49;6.50;;;2.60;;
12480;SDS011;6305;48.398;11.762;2024-02-21T04:17:16;6.22;;;2.25;;
12480;SDS011;6305;48.398;11.762;2024-02-21T04:19:42;3.88;;;2.45;;
12480;SDS011;6305;48.398;11.762;2024-02-21T04:22:09;5.75;;;2.40;;
12480;SDS011;6305;48.398;11.762;2024-02-21T04:24:38;8.93;;;2.42;;
12480;SDS011;6305;48.398;11.762;2024-02-21T04:27:05;6.60;;;2.70;;
12480;SDS011;6305;48.398;11.762;2024-02-21T04:29:32;6.50;;;2.33;;
12480;SDS011;6305;48.398;11.762;2024-02-21T04:31:59;6.95;;;2.38;;
12480;SDS011;6305;48.398;11.762;2024-02-21T04:34:27;4.80;;;2.10;;
12480;SDS011;6305;48.398;11.762;2024-02-21T04:36:54;5.47;;;2.35;;
12480;SDS011;6305;48.398;11.762;2024-02-21T04:39:21;4.68;;;2.50;;
12480;SDS011;6305;48.398;11.762;2024-02-21T04:41:49;4.90;;;2.17;;
12480;SDS011;6305;48.398;11.762;2024-02-21T04:44:16;4.82;;;2.20;;
12480;SDS011;6305;48.398;11.762;2024-02-21T04:46:46;3.65;;;2.10;;
12480;SDS011;6305;48.398;11.762;2024-02-21T04:49:13;4.22;;;2.00;;
12480;SDS011;6305;48.398;11.762;2024-02-21T04:51:40;4.45;;;2.10;;
12480;SDS011;6305;48.398;11.762;2024-02-21T04:54:07;4.13;;;2.40;;
12480;SDS011;6305;48.398;11.762;2024-02-21T04:56:34;4.95;;;1.90;;
12480;SDS011;6305;48.398;11.762;2024-02-21T04:59:02;4.10;;;2.00;;
12480;SDS011;6305;48.398;11.762;2024-02-21T05:01:29;3.70;;;2.28;;
12480;SDS011;6305;48.398;11.762;2024-02-21T05:03:56;3.20;;;1.95;;
12480;SDS011;6305;48.398;11.762;2024-02-21T05:06:23;3.72;;;1.95;;
12480;SDS011;6305;48.398;11.762;2024-02-21T05:08:50;5.72;;;2.13;;
12480;SDS011;6305;48.398;11.762;2024-02-21T05:11:17;4.70;;;1.92;;
12480;SDS011;6305;48.398;11.762;2024-02-21T05:13:44;8.57;;;2.30;;
12480;SDS011;6305;48.398;11.762;2024-02-21T05:16:12;5.38;;;2.13;;
12480;SDS011;6305;48.398;11.762;2024-02-21T05:18:39;3.20;;;2.00;;
12480;SDS011;6305;48.398;11.762;2024-02-21T05:21:07;5.93;;;2.17;;
12480;SDS011;6305;48.398;11.762;2024-02-21T05:23:34;5.50;;;1.90;;
12480;SDS011;6305;48.398;11.762;2024-02-21T05:26:01;5.03;;;2.10;;
12480;SDS011;6305;48.398;11.762;2024-02-21T05:28:28;2.85;;;2.05;;
12480;SDS011;6305;48.398;11.762;2024-02-21T05:30:55;5.25;;;2.15;;
12480;SDS011;6305;48.398;11.762;2024-02-21T05:33:24;5.57;;;2.05;;
12480;SDS011;6305;48.398;11.762;2024-02-21T05:35:51;5.75;;;2.13;;
12480;SDS011;6305;48.398;11.762;2024-02-21T05:38:18;5.65;;;2.20;;
12480;SDS011;6305;48.398;11.762;2024-02-21T05:40:45;4.72;;;2.22;;
12480;SDS011;6305;48.398;11.762;2024-02-21T05:43:12;3.40;;;1.90;;
12480;SDS011;6305;48.398;11.762;2024-02-21T05:45:39;5.90;;;2.47;;
12480;SDS011;6305;48.398;11.762;2024-02-21T05:48:07;4.72;;;2.35;;
12480;SDS011;6305;48.398;11.762;2024-02-21T05:50:35;4.40;;;1.90;;
12480;SDS011;6305;48.398;11.762;2024-02-21T05:53:02;4.03;;;2.08;;
12480;SDS011;6305;48.398;11.762;2024-02-21T05:55:30;5.00;;;1.92;;
12480;SDS011;6305;48.398;11.762;2024-02-21T05:57:56;4.38;;;2.40;;
12480;SDS011;6305;48.398;11.762;2024-02-21T06:00:23;4.03;;;2.05;;
12480;SDS011;6305;48.398;11.762;2024-02-21T06:02:50;4.30;;;2.22;;
12480;SDS011;6305;48.398;11.762;2024-02-21T06:05:17;4.72;;;1.92;;
12480;SDS011;6305;48.398;11.762;2024-02-21T06:07:46;2.97;;;2.00;;
12480;SDS011;6305;48.398;11.762;2024-02-21T06:10:13;4.70;;;2.30;;
12480;SDS011;6305;48.398;11.762;2024-02-21T06:12:39;3.92;;;2.20;;
12480;SDS011;6305;48.398;11.762;2024-02-21T06:15:07;4.38;;;2.30;;
12480;SDS011;6305;48.398;11.762;2024-02-21T06:17:34;6.88;;;2.80;;
12480;SDS011;6305;48.398;11.762;2024-02-21T06:20:01;4.82;;;2.25;;
12480;SDS011;6305;48.398;11.762;2024-02-21T06:22:29;5.10;;;2.65;;
12480;SDS011;6305;48.398;11.762;2024-02-21T06:24:58;4.85;;;2.40;;
12480;SDS011;6305;48.398;11.762;2024-02-21T06:27:25;5.72;;;2.65;;
12480;SDS011;6305;48.398;11.762;2024-02-21T06:29:52;3.40;;;2.10;;
12480;SDS011;6305;48.398;11.762;2024-02-21T06:32:19;6.32;;;2.47;;
12480;SDS011;6305;48.398;11.762;2024-02-21T06:34:46;4.53;;;2.40;;
12480;SDS011;6305;48.398;11.762;2024-02-21T06:37:12;4.32;;;2.30;;
12480;SDS011;6305;48.398;11.762;2024-02-21T06:39:39;3.30;;;2.15;;
12480;SDS011;6305;48.398;11.762;2024-02-21T06:42:08;5.40;;;2.08;;
12480;SDS011;6305;48.398;11.762;2024-02-21T06:44:35;4.07;;;2.13;;
12480;SDS011;6305;48.398;11.762;2024-02-21T06:47:05;5.97;;;2.60;;
12480;SDS011;6305;48.398;11.762;2024-02-21T06:49:32;4.90;;;2.17;;
12480;SDS011;6305;48.398;11.762;2024-02-21T06:52:02;3.25;;;2.10;;
12480;SDS011;6305;48.398;11.762;2024-02-21T06:54:30;6.80;;;2.20;;
12480;SDS011;6305;48.398;11.762;2024-02-21T06:56:57;6.55;;;2.50;;
12480;SDS011;6305;48.398;11.762;2024-02-21T06:59:25;5.05;;;2.40;;
12480;SDS011;6305;48.398;11.762;2024-02-21T07:01:53;5.85;;;2.30;;
12480;SDS011;6305;48.398;11.762;2024-02-21T07:04:20;3.30;;;1.90;;
12480;SDS011;6305;48.398;11.762;2024-02-21T07:06:47;4.30;;;2.13;;
12480;SDS011;6305;48.398;11.762;2024-02-21T07:09:14;5.07;;;1.90;;
12480;SDS011;6305;48.398;11.762;2024-02-21T07:11:41;7.97;;;2.60;;
12480;SDS011;6305;48.398;11.762;2024-02-21T07:14:08;4.03;;;2.50;;
12480;SDS011;6305;48.398;11.762;2024-02-21T07:16:36;3.30;;;2.38;;
12480;SDS011;6305;48.398;11.762;2024-02-21T07:19:03;3.90;;;2.30;;
12480;SDS011;6305;48.398;11.762;2024-02-21T07:21:30;4.03;;;1.98;;
12480;SDS011;6305;48.398;11.762;2024-02-21T07:23:57;5.30;;;2.60;;
12480;SDS011;6305;48.398;11.762;2024-02-21T07:26:24;4.50;;;2.30;;
12480;SDS011;6305;48.398;11.762;2024-02-21T07:28:51;5.60;;;2.10;;
12480;SDS011;6305;48.398;11.762;2024-02-21T07:31:17;4.38;;;1.80;;
12480;SDS011;6305;48.398;11.762;2024-02-21T07:33:46;5.75;;;2.30;;
12480;SDS011;6305;48.398;11.762;2024-02-21T07:36:14;4.05;;;1.85;;
12480;SDS011;6305;48.398;11.762;2024-02-21T07:38:42;2.20;;;1.58;;
12480;SDS011;6305;48.398;11.762;2024-02-21T07:41:08;3.70;;;1.75;;
12480;SDS011;6305;48.398;11.762;2024-02-21T07:43:35;4.22;;;1.70;;
12480;SDS011;6305;48.398;11.762;2024-02-21T07:46:02;4.97;;;2.17;;
12480;SDS011;6305;48.398;11.762;2024-02-21T07:48:29;2.45;;;1.40;;
12480;SDS011;6305;48.398;11.762;2024-02-21T07:50:57;6.63;;;1.83;;
12480;SDS011;6305;48.398;11.762;2024-02-21T07:53:24;2.92;;;1.30;;
12480;SDS011;6305;48.398;11.762;2024-02-21T07:55:51;2.85;;;1.52;;
12480;SDS011;6305;48.398;11.762;2024-02-21T07:58:18;3.50;;;2.00;;
12480;SDS011;6305;48.398;11.762;2024-02-21T08:00:45;4.57;;;2.55;;
12480;SDS011;6305;48.398;11.762;2024-02-21T08:03:12;4.20;;;2.50;;
12480;SDS011;6305;48.398;11.762;2024-02-21T08:05:40;3.85;;;2.20;;
12480;SDS011;6305;48.398;11.762;2024-02-21T08:08:08;4.20;;;2.25;;
12480;SDS011;6305;48.398;11.762;2024-02-21T08:10:35;3.58;;;2.42;;
12480;SDS011;6305;48.398;11.762;2024-02-21T08:13:02;3.90;;;1.60;;
12480;SDS011;6305;48.398;11.762;2024-02-21T08:15:29;3.05;;;1.63;;
12480;SDS011;6305;48.398;11.762;2024-02-21T08:17:56;3.22;;;1.65;;
12480;SDS011;6305;48.398;11.762;2024-02-21T08:20:26;3.60;;;2.28;;
12480;SDS011;6305;48.398;11.762;2024-02-21T08:22:53;2.47;;;1.70;;
12480;SDS011;6305;48.398;11.762;2024-02-21T08:25:21;2.92;;;1.60;;
12480;SDS011;6305;48.398;11.762;2024-02-21T08:27:48;2.40;;;1.42;;
12480;SDS011;6305;48.398;11.762;2024-02-21T08:30:17;2.47;;;1.50;;
12480;SDS011;6305;48.398;11.762;2024-02-21T08:32:44;2.25;;;1.48;;
12480;SDS011;6305;48.398;11.762;2024-02-21T08:35:11;2.58;;;1.42;;
12480;SDS011;6305;48.398;11.762;2024-02-21T08:37:38;3.05;;;1.48;;
12480;SDS011;6305;48.398;11.762;2024-02-21T08:40:05;2.20;;;1.30;;
12480;SDS011;6305;48.398;11.762;2024-02-21T08:42:36;1.95;;;1.30;;
12480;SDS011;6305;48.398;11.762;2024-02-21T08:45:05;3.17;;;1.60;;
12480;SDS011;6305;48.398;11.762;2024-02-21T08:47:33;3.45;;;1.52;;
12480;SDS011;6305;48.398;11.762;2024-02-21T08:50:01;1.60;;;1.23;;
12480;SDS011;6305;48.398;11.762;2024-02-21T08:52:28;1.73;;;1.30;;
12480;SDS011;6305;48.398;11.762;2024-02-21T08:54:55;2.63;;;1.20;;
12480;SDS011;6305;48.398;11.762;2024-02-21T08:57:21;3.17;;;1.38;;
12480;SDS011;6305;48.398;11.762;2024-02-21T08:59:50;2.03;;;1.50;;
12480;SDS011;6305;48.398;11.762;2024-02-21T09:02:16;5.65;;;1.45;;
12480;SDS011;6305;48.398;11.762;2024-02-21T09:04:43;3.13;;;1.40;;
12480;SDS011;6305;48.398;11.762;2024-02-21T09:07:10;2.95;;;1.20;;
12480;SDS011;6305;48.398;11.762;2024-02-21T09:09:38;2.75;;;1.17;;
12480;SDS011;6305;48.398;11.762;2024-02-21T09:12:06;2.65;;;1.10;;
12480;SDS011;6305;48.398;11.762;2024-02-21T09:14:33;2.83;;;1.20;;
12480;SDS011;6305;48.398;11.762;2024-02-21T09:17:02;2.95;;;0.95;;
12480;SDS011;6305;48.398;11.762;2024-02-21T09:19:29;2.10;;;1.10;;
12480;SDS011;6305;48.398;11.762;2024-02-21T09:21:56;3.08;;;1.08;;
12480;SDS011;6305;48.398;11.762;2024-02-21T09:24:23;2.97;;;1.08;;
12480;SDS011;6305;48.398;11.762;2024-02-21T09:26:49;8.57;;;1.50;;
12480;SDS011;6305;48.398;11.762;2024-02-21T09:29:16;3.80;;;1.00;;
12480;SDS011;6305;48.398;11.762;2024-02-21T09:31:43;2.08;;;1.00;;
12480;SDS011;6305;48.398;11.762;2024-02-21T09:34:12;1.20;;;1.00;;
12480;SDS011;6305;48.398;11.762;2024-02-21T09:36:39;3.15;;;1.05;;
12480;SDS011;6305;48.398;11.762;2024-02-21T09:39:06;2.80;;;1.00;;
12480;SDS011;6305;48.398;11.762;2024-02-21T09:41:33;3.00;;;1.17;;
12480;SDS011;6305;48.398;11.762;2024-02-21T09:44:05;1.60;;;1.02;;
12480;SDS011;6305;48.398;11.762;2024-02-21T09:46:36;2.35;;;1.00;;
12480;SDS011;6305;48.398;11.762;2024-02-21T09:49:13;4.45;;;1.13;;
12480;SDS011;6305;48.398;11.762;2024-02-21T09:51:49;3.05;;;1.02;;
12480;SDS011;6305;48.398;11.762;2024-02-21T09:54:20;1.80;;;0.90;;
12480;SDS011;6305;48.398;11.762;2024-02-21T09:56:47;2.30;;;1.00;;
12480;SDS011;6305;48.398;11.762;2024-02-21T09:59:14;1.33;;;0.82;;
12480;SDS011;6305;48.398;11.762;2024-02-21T10:01:42;3.70;;;1.25;;
12480;SDS011;6305;48.398;11.762;2024-02-21T10:04:09;3.33;;;1.17;;
12480;SDS011;6305;48.398;11.762;2024-02-21T10:06:37;4.18;;;1.13;;
12480;SDS011;6305;48.398;11.762;2024-02-21T10:09:05;2.90;;;1.10;;
12480;SDS011;6305;48.398;11.762;2024-02-21T10:11:32;1.55;;;0.90;;
12480;SDS011;6305;48.398;11.762;2024-02-21T10:14:04;2.28;;;1.35;;
12480;SDS011;6305;48.398;11.762;2024-02-21T10:16:31;1.90;;;1.00;;
12480;SDS011;6305;48.398;11.762;2024-02-21T10:18:59;3.17;;;1.10;;
12480;SDS011;6305;48.398;11.762;2024-02-21T10:21:26;2.10;;;1.17;;
12480;SDS011;6305;48.398;11.762;2024-02-21T10:23:54;2.08;;;0.90;;
12480;SDS011;6305;48.398;11.762;2024-02-21T10:26:21;1.65;;;0.90;;
12480;SDS011;6305;48.398;11.762;2024-02-21T10:28:48;2.50;;;1.00;;
12480;SDS011;6305;48.398;11.762;2024-02-21T10:31:23;2.15;;;1.00;;
12480;SDS011;6305;48.398;11.762;2024-02-21T10:33:54;1.85;;;1.00;;
12480;SDS011;6305;48.398;11.762;2024-02-21T10:36:21;1.63;;;0.70;;
12480;SDS011;6305;48.398;11.762;2024-02-21T10:38:49;2.08;;;0.98;;
12480;SDS011;6305;48.398;11.762;2024-02-21T10:41:18;2.22;;;1.10;;
12480;SDS011;6305;48.398;11.762;2024-02-21T10:43:46;2.33;;;1.17;;
12480;SDS011;6305;48.398;11.762;2024-02-21T10:46:18;2.95;;;1.15;;
12480;SDS011;6305;48.398;11.762;2024-02-21T10:48:46;1.75;;;1.10;;
12480;SDS011;6305;48.398;11.762;2024-02-21T10:51:15;2.35;;;1.00;;
12480;SDS011;6305;48.398;11.762;2024-02-21T10:53:45;2.35;;;1.15;;
12480;SDS011;6305;48.398;11.762;2024-02-21T10:56:20;2.10;;;0.90;;
12480;SDS011;6305;48.398;11.762;2024-02-21T10:58:49;2.75;;;0.90;;
12480;SDS011;6305;48.398;11.762;2024-02-21T11:01:17;2.00;;;1.00;;
12480;SDS011;6305;48.398;11.762;2024-02-21T11:03:45;2.72;;;1.17;;
12480;SDS011;6305;48.398;11.762;2024-02-21T11:06:14;1.48;;;0.98;;
12480;SDS011;6305;48.398;11.762;2024-02-21T11:08:42;1.52;;;0.88;;
12480;SDS011;6305;48.398;11.762;2024-02-21T11:11:11;2.45;;;0.98;;
12480;SDS011;6305;48.398;11.762;2024-02-21T11:13:44;1.55;;;1.10;;
12480;SDS011;6305;48.398;11.762;2024-02-21T11:16:11;1.55;;;0.90;;
12480;SDS011;6305;48.398;11.762;2024-02-21T11:18:47;3.38;;;1.08;;
12480;SDS011;6305;48.398;11.762;2024-02-21T11:21:14;2.22;;;0.80;;
12480;SDS011;6305;48.398;11.762;2024-02-21T11:23:41;2.38;;;1.08;;
12480;SDS011;6305;48.398;11.762;2024-02-21T11:26:08;2.60;;;1.00;;
12480;SDS011;6305;48.398;11.762;2024-02-21T11:28:36;1.27;;;0.98;;
12480;SDS011;6305;48.398;11.762;2024-02-21T11:31:10;1.58;;;1.00;;
12480;SDS011;6305;48.398;11.762;2024-02-21T11:33:40;1.58;;;0.98;;
12480;SDS011;6305;48.398;11.762;2024-02-21T11:36:07;1.38;;;0.82;;
12480;SDS011;6305;48.398;11.762;2024-02-21T11:38:34;2.40;;;0.95;;
12480;SDS011;6305;48.398;11.762;2024-02-21T11:41:02;2.05;;;0.93;;
12480;SDS011;6305;48.398;11.762;2024-02-21T11:43:29;2.13;;;0.90;;
12480;SDS011;6305;48.398;11.762;2024-02-21T11:45:59;0.63;;;0.60;;
12480;SDS011;6305;48.398;11.762;2024-02-21T11:48:30;1.13;;;0.75;;
12480;SDS011;6305;48.398;11.762;2024-02-21T11:50:58;1.27;;;0.80;;
12480;SDS011;6305;48.398;11.762;2024-02-21T11:53:26;2.90;;;0.93;;
12480;SDS011;6305;48.398;11.762;2024-02-21T11:55:56;0.80;;;0.60;;
12480;SDS011;6305;48.398;11.762;2024-02-21T11:58:23;2.20;;;1.10;;
12480;SDS011;6305;48.398;11.762;2024-02-21T12:00:50;0.90;;;0.65;;
12480;SDS011;6305;48.398;11.762;2024-02-21T12:03:17;1.10;;;0.90;;
12480;SDS011;6305;48.398;11.762;2024-02-21T12:05:45;2.67;;;0.63;;
12480;SDS011;6305;48.398;11.762;2024-02-21T12:08:12;1.33;;;0.60;;
12480;SDS011;6305;48.398;11.762;2024-02-21T12:10:41;1.38;;;0.93;;
12480;SDS011;6305;48.398;11.762;2024-02-21T12:13:09;1.73;;;0.90;;
12480;SDS011;6305;48.398;11.762;2024-02-21T12:15:38;1.58;;;0.90;;
12480;SDS011;6305;48.398;11.762;2024-02-21T12:18:05;1.55;;;1.00;;
12480;SDS011;6305;48.398;11.762;2024-02-21T12:20:32;1.83;;;1.00;;
12480;SDS011;6305;48.398;11.762;2024-02-21T12:23:03;1.20;;;1.00;;
12480;SDS011;6305;48.398;11.762;2024-02-21T12:25:30;2.78;;;1.27;;
12480;SDS011;6305;48.398;11.762;2024-02-21T12:27:57;1.83;;;1.10;;
12480;SDS011;6305;48.398;11.762;2024-02-21T12:30:25;2.35;;;1.10;;
12480;SDS011;6305;48.398;11.762;2024-02-21T12:32:52;3.30;;;1.20;;
12480;SDS011;6305;48.398;11.762;2024-02-21T12:35:19;2.67;;;1.70;;
12480;SDS011;6305;48.398;11.762;2024-02-21T12:37:46;4.28;;;2.20;;
12480;SDS011;6305;48.398;11.762;2024-02-21T12:40:15;2.67;;;1.50;;
12480;SDS011;6305;48.398;11.762;2024-02-21T12:42:42;2.15;;;1.45;;
12480;SDS011;6305;48.398;11.762;2024-02-21T12:45:10;1.10;;;1.00;;
12480;SDS011;6305;48.398;11.762;2024-02-21T12:47:38;2.15;;;1.00;;
12480;SDS011;6305;48.398;11.762;2024-02-21T12:50:05;2.15;;;1.10;;
12480;SDS011;6305;48.398;11.762;2024-02-21T12:52:33;1.67;;;1.00;;
12480;SDS011;6305;48.398;11.762;2024-02-21T12:55:00;1.80;;;1.05;;
12480;SDS011;6305;48.398;11.762;2024-02-21T12:57:28;1.20;;;0.90;;
12480;SDS011;6305;48.398;11.762;2024-02-21T12:59:55;1.35;;;0.95;;
12480;SDS011;6305;48.398;11.762;2024-02-21T13:02:22;1.55;;;1.00;;
12480;SDS011;6305;48.398;11.762;2024-02-21T13:04:49;1.80;;;0.85;;
12480;SDS011;6305;48.398;11.762;2024-02-21T13:07:16;1.00;;;0.70;;
12480;SDS011;6305;48.398;11.762;2024-02-21T13:09:43;1.13;;;0.70;;
12480;SDS011;6305;48.398;11.762;2024-02-21T13:12:10;0.68;;;0.50;;
12480;SDS011;6305;48.398;11.762;2024-02-21T13:14:38;1.20;;;0.60;;
12480;SDS011;6305;48.398;11.762;2024-02-21T13:17:08;0.80;;;0.80;;
12480;SDS011;6305;48.398;11.762;2024-02-21T13:19:36;1.40;;;0.60;;
12480;SDS011;6305;48.398;11.762;2024-02-21T13:22:02;1.25;;;0.50;;
12480;SDS011;6305;48.398;11.762;2024-02-21T13:24:29;0.75;;;0.57;;
12480;SDS011;6305;48.398;11.762;2024-02-21T13:26:56;0.65;;;0.47;;
12480;SDS011;6305;48.398;11.762;2024-02-21T13:29:23;0.68;;;0.60;;
12480;SDS011;6305;48.398;11.762;2024-02-21T13:31:51;0.80;;;0.63;;
12480;SDS011;6305;48.398;11.762;2024-02-21T13:34:18;1.35;;;0.70;;
12480;SDS011;6305;48.398;11.762;2024-02-21T13:36:45;1.67;;;0.70;;
12480;SDS011;6305;48.398;11.762;2024-02-21T13:39:12;2.08;;;0.50;;
12480;SDS011;6305;48.398;11.762;2024-02-21T13:41:41;2.22;;;0.60;;
12480;SDS011;6305;48.398;11.762;2024-02-21T13:44:08;0.93;;;0.60;;
12480;SDS011;6305;48.398;11.762;2024-02-21T13:46:35;0.60;;;0.60;;
12480;SDS011;6305;48.398;11.762;2024-02-21T13:49:04;0.43;;;0.40;;
12480;SDS011;6305;48.398;11.762;2024-02-21T13:51:32;1.40;;;0.75;;
12480;SDS011;6305;48.398;11.762;2024-02-21T13:54:01;1.58;;;0.60;;
12480;SDS011;6305;48.398;11.762;2024-02-21T13:56:29;2.17;;;0.50;;
12480;SDS011;6305;48.398;11.762;2024-02-21T13:58:57;0.65;;;0.60;;
12480;SDS011;6305;48.398;11.762;2024-02-21T14:01:25;0.70;;;0.60;;
12480;SDS011;6305;48.398;11.762;2024-02-21T14:03:53;0.50;;;0.50;;
12480;SDS011;6305;48.398;11.762;2024-02-21T14:06:21;1.45;;;0.73;;
12480;SDS011;6305;48.398;11.762;2024-02-21T14:08:48;0.80;;;0.57;;
12480;SDS011;6305;48.398;11.762;2024-02-21T14:11:15;1.75;;;0.60;;
12480;SDS011;6305;48.398;11.762;2024-02-21T14:13:42;0.85;;;0.50;;
12480;SDS011;6305;48.398;11.762;2024-02-21T14:16:10;1.73;;;0.50;;
12480;SDS011;6305;48.398;11.762;2024-02-21T14:18:38;1.17;;;0.60;;
12480;SDS011;6305;48.398;11.762;2024-02-21T14:21:07;1.38;;;0.70;;
12480;SDS011;6305;48.398;11.762;2024-02-21T14:23:37;1.25;;;0.73;;
12480;SDS011;6305;48.398;11.762;2024-02-21T14:26:04;0.77;;;0.55;;
12480;SDS011;6305;48.398;11.762;2024-02-21T14:28:31;1.15;;;0.70;;
12480;SDS011;6305;48.398;11.762;2024-02-21T14:30:59;1.30;;;0.60;;
12480;SDS011;6305;48.398;11.762;2024-02-21T14:33:25;1.15;;;0.70;;
12480;SDS011;6305;48.398;11.762;2024-02-21T14:35:53;1.95;;;0.80;;
12480;SDS011;6305;48.398;11.762;2024-02-21T14:38:19;0.90;;;0.90;;
12480;SDS011;6305;48.398;11.762;2024-02-21T14:40:48;0.60;;;0.60;;
12480;SDS011;6305;48.398;11.762;2024-02-21T14:43:14;2.00;;;0.63;;
12480;SDS011;6305;48.398;11.762;2024-02-21T14:45:43;2.67;;;0.63;;
12480;SDS011;6305;48.398;11.762;2024-02-21T14:48:12;1.30;;;0.70;;
12480;SDS011;6305;48.398;11.762;2024-02-21T14:50:40;0.60;;;0.60;;